Time;durP1;ratioP1;P1;durP2;ratioP2;P2;SDS_P1;SDS_P2;PMS_P1;PMS_P2;Temp;Humidity;BMP_temperature;BMP_pressure;BME280_temperature;BME280_humidity;BME280_pressure;Samples;Min_cycle;Max_cycle;Signal;HPM_P1;HPM_P2
2021/01/02 00:00:45;;;;;;;22.00;11.97;;;;;;;0.52;100.00;100466.44;5044779;28;20213;-79
2021/01/02 00:03:33;;;;;;;28.63;13.70;;;;;;;0.50;100.00;100463.00;5044455;28;20213;-79
2021/01/02 00:06:06;;;;;;;24.97;13.87;;;;;;;0.49;100.00;100466.41;5042878;28;20723;-79
2021/01/02 00:08:32;;;;;;;26.57;13.27;;;;;;;0.48;100.00;100464.69;5045849;28;20192;-79
2021/01/02 00:11:15;;;;;;;22.30;12.43;;;;;;;0.47;100.00;100468.94;5043252;28;20199;-79
2021/01/02 00:13:58;;;;;;;27.87;13.23;;;;;;;0.44;100.00;100462.91;5041170;28;20291;-79
2021/01/02 00:16:45;;;;;;;25.57;12.37;;;;;;;0.42;100.00;100468.00;5019515;28;20217;-79
2021/01/02 00:19:25;;;;;;;24.87;12.10;;;;;;;0.42;100.00;100468.00;5019148;28;20313;-79
2021/01/02 00:22:01;;;;;;;26.17;12.60;;;;;;;0.40;100.00;100467.13;5035415;28;20623;-80
2021/01/02 00:24:36;;;;;;;27.33;12.77;;;;;;;0.40;100.00;100476.53;5029256;28;20216;-79
2021/01/02 00:27:08;;;;;;;22.50;11.93;;;;;;;0.40;100.00;100487.66;5011153;28;20257;-79
2021/01/02 00:30:07;;;;;;;28.63;13.97;;;;;;;0.38;100.00;100476.53;5032947;28;20727;-79
2021/01/02 00:32:56;;;;;;;23.20;12.37;;;;;;;0.38;100.00;100482.50;5028763;28;20223;-80
2021/01/02 00:35:23;;;;;;;24.00;12.50;;;;;;;0.37;100.00;100479.94;5032539;28;20213;-79
2021/01/02 00:38:00;;;;;;;28.13;13.70;;;;;;;0.35;100.00;100485.06;5032073;28;20224;-80
2021/01/02 00:40:26;;;;;;;29.53;13.70;;;;;;;0.35;100.00;100485.06;5035088;28;20203;-79
2021/01/02 00:42:53;;;;;;;25.43;12.77;;;;;;;0.35;100.00;100494.44;5035067;28;20214;-79
2021/01/02 00:45:20;;;;;;;26.27;13.00;;;;;;;0.33;100.00;100491.84;5019355;28;20206;-79
2021/01/02 00:47:48;;;;;;;26.43;13.87;;;;;;;0.33;100.00;100489.28;5035313;28;20222;-79
2021/01/02 00:50:16;;;;;;;29.00;13.13;;;;;;;0.33;100.00;100496.97;5033291;28;20230;-80
2021/01/02 00:52:57;;;;;;;28.40;13.00;;;;;;;0.33;100.00;100491.00;5020248;28;20240;-79
2021/01/02 00:55:46;;;;;;;26.93;13.27;;;;;;;0.32;100.00;100499.53;5017254;28;20287;-79
2021/01/02 00:58:28;;;;;;;25.37;13.57;;;;;;;0.30;100.00;100496.97;5035604;28;20256;-79
2021/01/02 01:01:03;;;;;;;26.27;13.10;;;;;;;0.31;100.00;100500.38;5021316;28;20648;-79
2021/01/02 01:04:01;;;;;;;23.10;12.43;;;;;;;0.29;100.00;100507.19;5038339;28;20229;-79
2021/01/02 01:06:29;;;;;;;28.57;13.20;;;;;;;0.27;100.00;100507.16;5035366;28;20223;-79
2021/01/02 01:09:04;;;;;;;22.73;13.27;;;;;;;0.28;100.00;100510.56;5018080;28;20196;-79
2021/01/02 01:11:34;;;;;;;25.40;11.83;;;;;;;0.28;100.00;100513.16;5034545;28;20245;-79
2021/01/02 01:14:03;;;;;;;27.40;14.37;;;;;;;0.28;100.00;100520.84;5035913;28;20196;-80
2021/01/02 01:16:35;;;;;;;26.53;13.17;;;;;;;0.27;100.00;100524.25;5017084;28;20230;-79
2021/01/02 01:19:03;;;;;;;25.43;13.13;;;;;;;0.25;100.00;100520.81;5034594;28;20195;-79
2021/01/02 01:21:35;;;;;;;25.60;13.17;;;;;;;0.25;100.00;100523.38;5034251;28;20208;-79
2021/01/02 01:24:09;;;;;;;25.00;13.33;;;;;;;0.23;100.00;100523.34;5040807;28;20218;-79
2021/01/02 01:27:03;;;;;;;27.67;13.53;;;;;;;0.23;100.00;100519.91;5033882;28;20202;-80
2021/01/02 01:29:39;;;;;;;28.00;13.37;;;;;;;0.20;100.00;100518.19;5033937;28;20200;-79
2021/01/02 01:32:06;;;;;;;21.93;11.83;;;;;;;0.18;100.00;100530.97;5033540;28;20214;-79
2021/01/02 01:34:33;;;;;;;24.57;12.70;;;;;;;0.18;100.00;100527.56;5034332;28;20199;-79
2021/01/02 01:37:02;;;;;;;26.30;14.03;;;;;;;0.16;100.00;100527.53;5031587;28;20573;-79
2021/01/02 01:39:31;;;;;;;28.20;12.87;;;;;;;0.15;100.00;100528.34;5036234;28;20223;-79
2021/01/02 01:41:59;;;;;;;25.63;13.07;;;;;;;0.16;100.00;100531.81;5032820;28;20232;-80
2021/01/02 01:44:45;;;;;;;26.33;13.03;;;;;;;0.15;100.00;100536.03;5034740;28;20205;-79
2021/01/02 01:47:19;;;;;;;22.83;12.00;;;;;;;0.14;100.00;100529.22;5031459;28;20212;-79
2021/01/02 01:50:04;;;;;;;27.73;13.00;;;;;;;0.15;100.00;100532.63;5034791;28;20659;-80
2021/01/02 01:52:38;;;;;;;30.00;13.57;;;;;;;0.16;100.00;100532.66;5032586;28;20243;-80
2021/01/02 01:55:07;;;;;;;23.93;12.90;;;;;;;0.14;100.00;100526.66;5018210;28;20200;-79
2021/01/02 01:57:37;;;;;;;28.20;13.93;;;;;;;0.13;100.00;100527.47;5033240;28;20217;-79
2021/01/02 02:00:10;;;;;;;24.13;12.30;;;;;;;0.13;100.00;100534.31;5033924;28;20200;-79
2021/01/02 02:03:11;;;;;;;27.13;13.13;;;;;;;0.12;100.00;100528.34;5032913;28;20247;-80
2021/01/02 02:05:50;;;;;;;25.50;13.10;;;;;;;0.11;100.00;100533.44;5039060;28;20207;-79
2021/01/02 02:08:16;;;;;;;26.53;13.13;;;;;;;0.07;100.00;100532.53;5036017;28;20201;-80
2021/01/02 02:10:45;;;;;;;24.97;11.73;;;;;;;0.07;100.00;100539.34;5036788;28;20222;-79
2021/01/02 02:13:13;;;;;;;28.07;12.70;;;;;;;0.05;100.00;100536.75;5035519;28;20243;-79
2021/01/02 02:15:49;;;;;;;26.03;12.83;;;;;;;0.05;100.00;100535.88;5043647;28;20311;-79
2021/01/02 02:18:20;;;;;;;26.67;12.67;;;;;;;0.03;100.00;100532.44;5036172;28;20241;-79
2021/01/02 02:20:48;;;;;;;28.37;13.07;;;;;;;0.01;100.00;100529.84;5043474;28;20260;-79
2021/01/02 02:23:14;;;;;;;27.17;12.87;;;;;;;0.01;100.00;100534.13;5010666;28;20228;-79
2021/01/02 02:25:50;;;;;;;26.60;13.80;;;;;;;-0.01;100.00;100539.22;5030339;28;20200;-80
2021/01/02 02:28:41;;;;;;;26.57;13.03;;;;;;;-0.01;100.00;100536.66;5020951;28;20206;-79
2021/01/02 02:31:08;;;;;;;26.20;13.10;;;;;;;-0.03;100.00;100538.34;5006047;28;20232;-80
2021/01/02 02:33:35;;;;;;;23.60;10.93;;;;;;;-0.04;100.00;100540.03;5033920;28;20203;-79
2021/01/02 02:36:03;;;;;;;24.83;13.10;;;;;;;-0.05;100.00;100534.91;5039079;28;20212;-79
2021/01/02 02:38:35;;;;;;;23.13;12.20;;;;;;;-0.06;100.00;100538.28;5036564;28;20219;-79
2021/01/02 02:41:01;;;;;;;28.07;13.70;;;;;;;-0.08;100.00;100538.25;5041132;28;20637;-79
2021/01/02 02:43:30;;;;;;;31.33;13.93;;;;;;;-0.10;100.00;100537.38;5038102;28;20223;-79
2021/01/02 02:45:56;;;;;;;27.63;13.10;;;;;;;-0.10;100.00;100544.22;5038275;28;20193;-80
2021/01/02 02:48:24;;;;;;;25.27;13.23;;;;;;;-0.10;100.00;100541.66;5038693;28;20216;-79
2021/01/02 02:50:53;;;;;;;23.13;11.50;;;;;;;-0.13;100.00;100541.59;5037406;28;20370;-80
2021/01/02 02:53:19;;;;;;;26.20;12.13;;;;;;;-0.15;100.00;100544.13;5035932;28;20218;-80
2021/01/02 02:55:45;;;;;;;22.33;11.53;;;;;;;-0.17;100.00;100547.53;5037236;28;20238;-79
2021/01/02 02:58:11;;;;;;;23.60;11.73;;;;;;;-0.18;100.00;100545.78;5036616;28;20220;-80
2021/01/02 03:00:38;;;;;;;27.37;12.93;;;;;;;-0.22;100.00;100545.72;5036901;28;20464;-79
2021/01/02 03:03:08;;;;;;;24.70;13.03;;;;;;;-0.24;100.00;100539.72;5043818;28;20212;-79
2021/01/02 03:05:38;;;;;;;24.17;13.40;;;;;;;-0.25;100.00;100549.94;5019659;28;20194;-80
2021/01/02 03:08:06;;;;;;;25.77;12.90;;;;;;;-0.29;100.00;100543.03;5022862;28;20207;-80
2021/01/02 03:10:32;;;;;;;27.23;13.67;;;;;;;-0.33;100.00;100539.56;5020384;28;20645;-80
2021/01/02 03:12:57;;;;;;;26.83;12.77;;;;;;;-0.38;100.00;100538.63;5039325;28;20224;-80
2021/01/02 03:15:26;;;;;;;27.17;13.37;;;;;;;-0.40;100.00;100548.84;5039664;28;23003;-80
2021/01/02 03:17:53;;;;;;;24.50;12.53;;;;;;;-0.44;100.00;100544.50;5036333;28;20225;-79
2021/01/02 03:20:20;;;;;;;25.67;12.63;;;;;;;-0.48;100.00;100549.53;5021414;28;20216;-79
2021/01/02 03:22:48;;;;;;;25.83;13.33;;;;;;;-0.52;100.00;100543.50;5038941;28;20607;-79
2021/01/02 03:25:15;;;;;;;24.57;12.50;;;;;;;-0.53;100.00;100546.88;5037603;28;20203;-80
2021/01/02 03:27:41;;;;;;;25.37;12.33;;;;;;;-0.60;100.00;100545.94;5041391;28;20233;-79
2021/01/02 03:30:09;;;;;;;25.60;12.50;;;;;;;-0.64;100.00;100538.16;5039681;28;20216;-79
2021/01/02 03:32:37;;;;;;;25.97;13.07;;;;;;;-0.70;100.00;100546.59;5038100;28;20223;-80
2021/01/02 03:35:05;;;;;;;25.87;12.53;;;;;;;-0.73;100.00;100543.13;5039550;28;20215;-79
2021/01/02 03:37:31;;;;;;;24.60;12.40;;;;;;;-0.78;100.00;100541.31;5037487;28;20215;-79
2021/01/02 03:39:57;;;;;;;24.20;12.40;;;;;;;-0.84;100.00;100545.50;5018818;28;20626;-79
2021/01/02 03:42:23;;;;;;;33.63;14.33;;;;;;;-0.88;100.00;100547.13;5045792;28;20227;-79
2021/01/02 03:44:49;;;;;;;21.03;11.70;;;;;;;-0.90;100.00;100545.34;5048991;28;20211;-79
2021/01/02 03:47:15;;;;;;;25.23;12.23;;;;;;;-0.95;100.00;100547.81;5041915;28;20275;-81
2021/01/02 03:49:41;;;;;;;23.73;12.37;;;;;;;-1.00;100.00;100545.19;5041896;28;20195;-79
2021/01/02 03:52:07;;;;;;;23.63;12.37;;;;;;;-1.03;100.00;100547.66;5043447;28;20247;-79
2021/01/02 03:54:34;;;;;;;22.93;11.67;;;;;;;-1.07;100.00;100545.91;5030636;28;20573;-79
2021/01/02 03:57:00;;;;;;;23.47;11.80;;;;;;;-1.11;100.00;100559.44;5028604;28;20572;-79
2021/01/02 03:59:26;;;;;;;17.30;10.60;;;;;;;-1.16;100.00;100555.94;5031782;28;20227;-79
2021/01/02 04:01:54;;;;;;;23.20;11.63;;;;;;;-1.18;100.00;100558.47;5031366;28;20707;-79
2021/01/02 04:04:20;;;;;;;25.93;12.23;;;;;;;-1.17;100.00;100560.19;5025699;28;20202;-79
2021/01/02 04:06:46;;;;;;;21.93;11.20;;;;;;;-1.12;100.00;100567.13;5028608;28;20200;-79
2021/01/02 04:09:11;;;;;;;21.17;11.07;;;;;;;-1.09;100.00;100565.47;5026574;28;20193;-79
2021/01/02 04:11:39;;;;;;;20.53;10.97;;;;;;;-1.07;100.00;100565.47;5029486;28;20219;-79
2021/01/02 04:14:06;;;;;;;23.60;11.13;;;;;;;-1.07;100.00;100565.47;5025457;28;20546;-79
2021/01/02 04:16:32;;;;;;;22.43;11.13;;;;;;;-1.06;100.00;100562.09;5028273;28;20619;-79
2021/01/02 04:18:58;;;;;;;22.80;10.97;;;;;;;-1.02;100.00;100558.75;5005631;28;20224;-79
2021/01/02 04:21:24;;;;;;;20.60;10.50;;;;;;;-1.01;100.00;100560.50;5028354;28;20282;-79
2021/01/02 04:23:49;;;;;;;20.03;10.40;;;;;;;-0.99;100.00;100556.28;5026254;28;20200;-79
2021/01/02 04:26:18;;;;;;;22.23;11.50;;;;;;;-0.97;100.00;100550.38;5027914;28;20615;-79
2021/01/02 04:28:44;;;;;;;21.60;11.43;;;;;;;-0.94;100.00;100552.13;5026125;28;20775;-79
2021/01/02 04:31:11;;;;;;;24.63;11.13;;;;;;;-0.91;100.00;100553.88;5025400;28;20196;-79
2021/01/02 04:33:37;;;;;;;19.03;9.97;;;;;;;-0.87;100.00;100560.78;5031459;28;20230;-79
2021/01/02 04:36:04;;;;;;;18.60;10.77;;;;;;;-0.86;100.00;100567.59;5049909;28;20231;-80
2021/01/02 04:38:30;;;;;;;26.47;12.00;;;;;;;-0.84;100.00;100566.81;5030636;28;20215;-80
2021/01/02 04:40:55;;;;;;;24.53;12.50;;;;;;;-0.83;100.00;100565.97;5036440;28;20210;-80
2021/01/02 04:43:22;;;;;;;22.90;12.03;;;;;;;-0.83;100.00;100568.53;5021020;28;20227;-79
2021/01/02 04:45:48;;;;;;;24.30;11.63;;;;;;;-0.83;100.00;100570.22;5037615;28;20211;-79
2021/01/02 04:48:14;;;;;;;26.00;12.37;;;;;;;-0.83;100.00;100575.34;5039816;28;20211;-79
2021/01/02 04:50:40;;;;;;;28.43;14.93;;;;;;;-0.82;100.00;100571.97;5036430;28;20215;-80
2021/01/02 04:53:06;;;;;;;22.03;12.17;;;;;;;-0.80;100.00;100580.53;5038025;28;20230;-79
2021/01/02 04:55:33;;;;;;;23.83;11.83;;;;;;;-0.77;100.00;100578.06;5036812;28;20220;-79
2021/01/02 04:58:05;;;;;;;21.93;12.13;;;;;;;-0.73;100.00;100584.09;5034727;28;20284;-80
2021/01/02 05:00:32;;;;;;;22.87;10.70;;;;;;;-0.73;100.00;100578.97;5031616;28;20231;-80
2021/01/02 05:02:59;;;;;;;22.87;11.80;;;;;;;-0.74;100.00;100585.75;5036568;28;20232;-80
2021/01/02 05:05:25;;;;;;;20.43;11.13;;;;;;;-0.76;100.00;100584.88;5034596;28;20227;-79
2021/01/02 05:07:51;;;;;;;21.23;11.53;;;;;;;-0.77;100.00;100583.16;5014702;28;20224;-80
2021/01/02 05:10:17;;;;;;;22.00;11.03;;;;;;;-0.74;100.00;100592.59;5036685;28;20196;-80
2021/01/02 05:12:43;;;;;;;21.63;11.33;;;;;;;-0.73;100.00;100587.50;5040881;28;20223;-80
2021/01/02 05:15:11;;;;;;;21.37;10.60;;;;;;;-0.72;100.00;100589.25;5022679;28;20234;-80
2021/01/02 05:17:38;;;;;;;21.43;11.03;;;;;;;-0.71;100.00;100590.09;5038619;28;20228;-79
2021/01/02 05:20:07;;;;;;;21.70;11.73;;;;;;;-0.69;100.00;100593.53;5036642;28;20209;-80
2021/01/02 05:22:33;;;;;;;23.57;11.53;;;;;;;-0.67;100.00;100594.44;5036426;28;20610;-80
2021/01/02 05:25:15;;;;;;;20.93;11.03;;;;;;;-0.65;100.00;100598.78;5038356;28;20211;-80
2021/01/02 05:27:43;;;;;;;24.50;12.07;;;;;;;-0.65;100.00;100593.66;5035980;28;20215;-79
2021/01/02 05:30:13;;;;;;;24.60;12.97;;;;;;;-0.64;100.00;100604.75;5037170;28;20196;-80
2021/01/02 05:32:57;;;;;;;21.43;11.73;;;;;;;-0.66;100.00;100601.31;5034609;28;20208;-80
2021/01/02 05:35:24;;;;;;;27.47;14.37;;;;;;;-0.66;100.00;100603.84;5037425;28;20200;-80
2021/01/02 05:37:51;;;;;;;24.13;12.70;;;;;;;-0.67;100.00;100613.25;5037926;28;20695;-79
2021/01/02 05:40:34;;;;;;;27.60;12.23;;;;;;;-0.69;100.00;100625.13;5041356;28;20207;-80
2021/01/02 05:43:00;;;;;;;23.47;12.33;;;;;;;-0.69;100.00;100619.16;5020236;28;20228;-79
2021/01/02 05:45:28;;;;;;;27.83;15.20;;;;;;;-0.70;100.00;100619.97;5044132;28;20204;-80
2021/01/02 05:47:56;;;;;;;28.43;14.30;;;;;;;-0.77;100.00;100624.13;5037265;28;20261;-80
2021/01/02 05:50:23;;;;;;;24.03;12.83;;;;;;;-0.85;100.00;100621.41;5041050;28;20649;-79
2021/01/02 05:52:50;;;;;;;24.37;11.57;;;;;;;-0.94;100.00;100618.66;5022068;28;20228;-79
2021/01/02 05:55:28;;;;;;;22.50;11.27;;;;;;;-1.02;100.00;100623.63;5040837;28;20214;-80
2021/01/02 05:57:54;;;;;;;18.73;10.30;;;;;;;-1.08;100.00;100626.06;5040569;28;20676;-79
2021/01/02 06:00:21;;;;;;;18.87;10.63;;;;;;;-1.15;100.00;100622.50;5043443;28;20200;-80
2021/01/02 06:02:47;;;;;;;19.97;10.57;;;;;;;-1.17;100.00;100623.31;5038382;28;20614;-79
2021/01/02 06:05:13;;;;;;;19.63;10.27;;;;;;;-1.25;100.00;100630.81;5022328;28;20188;-79
2021/01/02 06:07:41;;;;;;;18.57;10.57;;;;;;;-1.29;100.00;100626.44;5039527;28;21339;-79
2021/01/02 06:10:10;;;;;;;18.57;10.43;;;;;;;-1.39;100.00;100622.84;5039318;28;20302;-79
2021/01/02 06:12:38;;;;;;;19.60;10.30;;;;;;;-1.45;100.00;100626.94;5041882;28;20211;-79
2021/01/02 06:15:06;;;;;;;18.83;10.97;;;;;;;-1.48;100.00;100629.41;5039515;28;20204;-80
2021/01/02 06:17:33;;;;;;;19.13;10.10;;;;;;;-1.50;100.00;100636.19;5035618;28;20231;-79
2021/01/02 06:20:01;;;;;;;19.93;10.63;;;;;;;-1.53;100.00;100639.53;5039318;28;20208;-79
2021/01/02 06:22:29;;;;;;;15.37;9.10;;;;;;;-1.55;100.00;100642.09;5042045;28;20235;-79
2021/01/02 06:24:55;;;;;;;17.57;9.77;;;;;;;-1.58;100.00;100647.13;5037717;28;20207;-82
2021/01/02 06:27:21;;;;;;;19.87;9.67;;;;;;;-1.65;100.00;100647.81;5040993;28;20229;-80
2021/01/02 06:29:52;;;;;;;21.53;11.30;;;;;;;-1.65;100.00;100652.03;5036111;28;20219;-79
2021/01/02 06:32:19;;;;;;;19.63;11.47;;;;;;;-1.69;100.00;100656.22;5041944;28;20220;-79
2021/01/02 06:34:47;;;;;;;25.97;12.50;;;;;;;-1.73;100.00;100656.97;5038090;28;20211;-79
2021/01/02 06:37:13;;;;;;;27.93;13.20;;;;;;;-1.78;100.00;100663.66;5022129;28;20208;-80
2021/01/02 06:39:39;;;;;;;21.00;10.73;;;;;;;-1.82;100.00;100667.81;5038501;28;20200;-79
2021/01/02 06:42:32;;;;;;;25.07;11.97;;;;;;;-1.87;100.00;100671.97;5020358;28;20707;-79
2021/01/02 06:44:58;;;;;;;20.03;10.43;;;;;;;-1.94;100.00;100668.38;5021746;28;20203;-80
2021/01/02 06:47:32;;;;;;;20.70;9.80;;;;;;;-2.00;100.00;100665.69;5040209;28;20271;-79
2021/01/02 06:49:58;;;;;;;16.20;9.43;;;;;;;-1.98;100.00;100658.91;5039358;28;20204;-79
2021/01/02 06:52:31;;;;;;;17.33;8.97;;;;;;;-1.97;100.00;100667.44;5039607;28;20223;-79
2021/01/02 06:55:20;;;;;;;19.63;9.53;;;;;;;-2.00;100.00;100669.94;5039340;28;20196;-79
2021/01/02 06:57:48;;;;;;;14.67;8.53;;;;;;;-2.06;100.00;100670.63;5042120;28;20650;-79
2021/01/02 07:00:19;;;;;;;16.23;9.13;;;;;;;-2.08;100.00;100668.88;5036116;28;20215;-80
2021/01/02 07:02:45;;;;;;;13.43;8.03;;;;;;;-2.07;100.00;100670.59;5038876;28;20230;-79
2021/01/02 07:05:11;;;;;;;17.30;9.13;;;;;;;-2.10;100.00;100676.47;5023311;28;20200;-79
2021/01/02 07:07:40;;;;;;;20.60;9.03;;;;;;;-2.13;100.00;100677.28;5042042;28;20622;-79
2021/01/02 07:10:17;;;;;;;16.37;8.90;;;;;;;-2.13;100.00;100678.94;5022431;28;20214;-79
2021/01/02 07:12:43;;;;;;;13.17;8.00;;;;;;;-2.13;100.00;100674.72;5038929;28;20828;-79
2021/01/02 07:15:10;;;;;;;20.00;10.47;;;;;;;-2.15;100.00;100676.34;5040505;28;20690;-80
2021/01/02 07:17:36;;;;;;;19.83;10.87;;;;;;;-2.14;100.00;100679.78;5038280;28;20228;-79
2021/01/02 07:20:06;;;;;;;23.50;12.00;;;;;;;-2.17;100.00;100672.91;5046281;28;21815;-79
2021/01/02 07:22:32;;;;;;;25.57;12.67;;;;;;;-2.17;100.00;100685.66;5026424;28;20253;-79
2021/01/02 07:25:01;;;;;;;20.60;11.07;;;;;;;-2.16;100.00;100678.91;5051102;28;20469;-79
2021/01/02 07:27:30;;;;;;;21.77;11.40;;;;;;;-2.20;100.00;100679.63;5045318;28;20204;-79
2021/01/02 07:29:58;;;;;;;22.47;9.97;;;;;;;-2.17;100.00;100685.66;5053747;28;20207;-79
2021/01/02 07:32:26;;;;;;;19.40;11.23;;;;;;;-2.14;100.00;100687.47;5040115;28;21042;-79
2021/01/02 07:34:53;;;;;;;22.47;12.47;;;;;;;-2.16;100.00;100692.53;5039068;28;20206;-79
2021/01/02 07:37:21;;;;;;;23.47;12.70;;;;;;;-2.17;100.00;100698.44;5035722;28;20207;-79
2021/01/02 07:39:58;;;;;;;26.77;13.27;;;;;;;-2.15;100.00;100703.59;5036446;28;20222;-79
2021/01/02 07:42:25;;;;;;;19.83;11.53;;;;;;;-2.13;100.00;100695.16;5033116;28;20481;-79
2021/01/02 07:45:00;;;;;;;21.67;10.50;;;;;;;-2.11;100.00;100696.06;5038293;28;20248;-79
2021/01/02 07:47:28;;;;;;;17.43;10.00;;;;;;;-2.07;100.00;100694.47;5032555;28;20211;-79
2021/01/02 07:50:08;;;;;;;20.83;11.03;;;;;;;-2.05;100.00;100697.06;5036578;28;20192;-79
2021/01/02 07:52:34;;;;;;;20.43;10.40;;;;;;;-2.06;100.00;100696.16;5030758;28;20227;-79
2021/01/02 07:55:06;;;;;;;20.97;12.17;;;;;;;-2.06;100.00;100697.88;5036702;28;20272;-79
2021/01/02 07:57:32;;;;;;;20.83;11.27;;;;;;;-2.03;100.00;100708.19;5033503;28;20234;-79
2021/01/02 07:59:58;;;;;;;22.60;11.90;;;;;;;-1.99;100.00;100704.88;5033760;28;20200;-79
2021/01/02 08:02:25;;;;;;;25.43;12.23;;;;;;;-1.97;100.00;100705.78;5037977;28;20239;-79
2021/01/02 08:04:53;;;;;;;22.70;12.23;;;;;;;-1.95;100.00;100710.09;5019178;28;20211;-79
2021/01/02 08:07:19;;;;;;;26.37;13.23;;;;;;;-1.92;100.00;100712.75;5035033;28;20199;-79
2021/01/02 08:09:46;;;;;;;23.80;12.37;;;;;;;-1.86;100.00;100717.16;5034695;28;20222;-79
2021/01/02 08:12:13;;;;;;;26.20;12.23;;;;;;;-1.81;100.00;100719.81;5033637;28;20217;-79
2021/01/02 08:14:43;;;;;;;24.80;11.40;;;;;;;-1.80;100.00;100722.41;5033934;28;20204;-79
2021/01/02 08:17:10;;;;;;;24.47;13.33;;;;;;;-1.76;100.00;100723.34;5049112;28;20203;-79
2021/01/02 08:19:40;;;;;;;23.07;11.50;;;;;;;-1.77;100.00;100727.59;5036801;28;20289;-79
2021/01/02 08:22:08;;;;;;;22.13;11.00;;;;;;;-1.80;100.00;100721.56;5036880;28;20203;-79
2021/01/02 08:24:35;;;;;;;20.60;11.00;;;;;;;-1.74;100.00;100722.59;5037343;28;20219;-79
2021/01/02 08:27:03;;;;;;;20.00;10.80;;;;;;;-1.68;100.00;100724.41;5035916;28;20211;-79
2021/01/02 08:29:31;;;;;;;24.33;12.03;;;;;;;-1.64;100.00;100727.91;5034699;28;20204;-79
2021/01/02 08:32:01;;;;;;;19.33;11.13;;;;;;;-1.59;100.00;100727.19;5035833;28;20292;-79
2021/01/02 08:34:30;;;;;;;30.13;15.87;;;;;;;-1.54;100.00;100724.78;5031127;28;20223;-79
2021/01/02 08:37:01;;;;;;;30.83;16.57;;;;;;;-1.47;100.00;100724.09;5014808;28;20653;-79
2021/01/02 08:39:28;;;;;;;24.93;13.03;;;;;;;-1.46;100.00;100722.38;5034794;28;20212;-79
2021/01/02 08:41:56;;;;;;;27.27;13.57;;;;;;;-1.40;100.00;100725.13;5032264;28;20220;-79
2021/01/02 08:44:23;;;;;;;27.83;14.60;;;;;;;-1.38;100.00;100728.56;5010587;28;20207;-79
2021/01/02 08:46:49;;;;;;;31.50;16.43;;;;;;;-1.30;100.00;100728.75;5029570;28;20215;-79
2021/01/02 08:49:26;;;;;;;32.50;16.03;;;;;;;-1.25;100.00;100734.84;5015887;28;20192;-79
2021/01/02 08:51:52;;;;;;;26.83;14.93;;;;;;;-1.19;100.00;100737.56;5030884;28;20727;-79
2021/01/02 08:54:18;;;;;;;34.80;19.63;;;;;;;-1.14;100.00;100738.53;5016349;28;20214;-79
2021/01/02 08:56:45;;;;;;;31.20;17.23;;;;;;;-1.09;100.00;100741.19;5031421;28;20624;-79
2021/01/02 08:59:12;;;;;;;36.97;17.67;;;;;;;-1.04;100.00;100740.47;5038433;28;20290;-80
2021/01/02 09:01:38;;;;;;;33.67;17.17;;;;;;;-0.98;100.00;100750.84;5031059;28;20236;-80
2021/01/02 09:04:10;;;;;;;31.73;17.77;;;;;;;-0.89;100.00;100762.13;5028345;28;20683;-80
2021/01/02 09:06:36;;;;;;;42.33;20.67;;;;;;;-0.81;100.00;100750.34;5032039;28;20211;-79
2021/01/02 09:09:04;;;;;;;70.57;32.13;;;;;;;-0.74;100.00;100753.91;5034531;28;20646;-79
2021/01/02 09:11:46;;;;;;;101.40;43.80;;;;;;;-0.67;100.00;100758.34;5029226;28;20232;-79
2021/01/02 09:14:12;;;;;;;86.43;39.57;;;;;;;-0.60;100.00;100755.97;5037834;28;20199;-79
2021/01/02 09:16:38;;;;;;;62.33;30.33;;;;;;;-0.53;100.00;100754.38;5035879;28;20706;-80
2021/01/02 09:19:04;;;;;;;53.77;27.63;;;;;;;-0.44;100.00;100756.25;5037113;28;20215;-79
2021/01/02 09:21:30;;;;;;;44.03;25.80;;;;;;;-0.38;100.00;100753.84;5031004;28;20737;-79
2021/01/02 09:23:56;;;;;;;41.90;25.30;;;;;;;-0.33;100.00;100754.78;5036261;28;20261;-80
2021/01/02 09:26:24;;;;;;;44.80;23.73;;;;;;;-0.28;100.00;100758.31;5036589;28;20211;-80
2021/01/02 09:28:51;;;;;;;38.93;20.33;;;;;;;-0.22;100.00;100755.00;5034662;28;20202;-80
2021/01/02 09:31:18;;;;;;;42.37;23.53;;;;;;;-0.16;100.00;100757.69;5035506;28;20212;-80
2021/01/02 09:33:45;;;;;;;39.83;19.77;;;;;;;-0.09;100.00;100761.22;5016064;28;20687;-80
2021/01/02 09:36:13;;;;;;;39.93;22.37;;;;;;;-0.04;100.00;100763.03;5038433;28;20200;-80
2021/01/02 09:38:39;;;;;;;44.90;24.47;;;;;;;0.02;100.00;100762.31;5032950;28;20266;-80
2021/01/02 09:41:05;;;;;;;37.43;20.60;;;;;;;0.09;100.00;100766.72;5036063;28;20251;-80
2021/01/02 09:43:31;;;;;;;51.53;27.83;;;;;;;0.14;100.00;100774.50;5033786;28;20204;-79
2021/01/02 09:45:57;;;;;;;42.27;20.40;;;;;;;0.17;100.00;100770.28;5037143;28;20254;-80
2021/01/02 09:48:23;;;;;;;46.47;23.03;;;;;;;0.21;100.00;100770.34;5032453;28;20193;-80
2021/01/02 09:50:50;;;;;;;49.90;21.50;;;;;;;0.23;100.00;100769.56;5034287;28;20192;-80
2021/01/02 09:53:17;;;;;;;41.17;21.23;;;;;;;0.25;100.00;100765.31;5031347;28;20336;-80
2021/01/02 09:55:43;;;;;;;44.50;23.40;;;;;;;0.28;100.00;100764.50;5034796;28;20214;-80
2021/01/02 09:58:10;;;;;;;43.40;22.87;;;;;;;0.29;100.00;100767.09;5032438;28;20237;-80
2021/01/02 10:00:36;;;;;;;49.63;22.53;;;;;;;0.29;100.00;100763.66;5015052;28;20214;-79
2021/01/02 10:03:03;;;;;;;49.30;21.70;;;;;;;0.29;100.00;100769.66;5030796;28;20231;-80
2021/01/02 10:05:29;;;;;;;43.47;21.30;;;;;;;0.31;100.00;100770.53;5032496;28;20560;-79
2021/01/02 10:07:55;;;;;;;46.37;20.73;;;;;;;0.34;100.00;100772.31;5036418;28;20204;-80
2021/01/02 10:10:21;;;;;;;45.13;21.60;;;;;;;0.37;100.00;100772.38;5030376;28;20209;-80
2021/01/02 10:12:48;;;;;;;49.30;21.70;;;;;;;0.38;100.00;100772.38;5031971;28;20218;-80
2021/01/02 10:15:17;;;;;;;53.50;22.67;;;;;;;0.38;100.00;100772.38;5030464;28;20718;-79
2021/01/02 10:17:43;;;;;;;45.47;21.33;;;;;;;0.42;100.00;100778.41;5031878;28;20216;-79
2021/01/02 10:20:12;;;;;;;52.33;21.83;;;;;;;0.44;100.00;100770.75;5028601;28;20208;-79
2021/01/02 10:22:38;;;;;;;44.73;21.83;;;;;;;0.44;100.00;100779.34;5029542;28;20590;-80
2021/01/02 10:25:05;;;;;;;49.33;21.17;;;;;;;0.46;100.00;100772.53;5027086;28;20228;-80
2021/01/02 10:27:31;;;;;;;46.47;22.47;;;;;;;0.48;100.00;100768.28;5025086;28;20198;-80
2021/01/02 10:29:57;;;;;;;46.03;21.57;;;;;;;0.51;100.00;100770.91;5025885;28;20214;-80
2021/01/02 10:32:26;;;;;;;42.13;19.40;;;;;;;0.56;100.00;100771.84;5028165;28;20212;-79
2021/01/02 10:34:53;;;;;;;50.73;23.17;;;;;;;0.59;100.00;100775.31;5034095;28;20204;-80
2021/01/02 10:37:21;;;;;;;49.90;22.20;;;;;;;0.60;100.00;100770.19;5036712;28;20200;-80
2021/01/02 10:39:47;;;;;;;46.70;22.17;;;;;;;0.62;100.00;100770.22;5037484;28;20224;-80
2021/01/02 10:42:15;;;;;;;55.43;22.37;;;;;;;0.63;100.00;100761.69;5036507;28;20212;-80
2021/01/02 10:44:43;;;;;;;49.47;22.87;;;;;;;0.60;100.00;100759.94;5039123;28;20208;-80
2021/01/02 10:47:09;;;;;;;48.70;22.47;;;;;;;0.58;100.00;100748.75;5034664;28;20211;-80
2021/01/02 10:49:36;;;;;;;47.20;22.50;;;;;;;0.52;100.00;100738.41;5035068;28;20192;-80
2021/01/02 10:52:01;;;;;;;49.47;21.73;;;;;;;0.53;100.00;100732.44;5038701;28;20233;-80
2021/01/02 10:54:27;;;;;;;48.87;22.20;;;;;;;0.53;100.00;100738.44;5039606;28;20204;-80
2021/01/02 10:56:54;;;;;;;54.40;22.77;;;;;;;0.51;100.00;100740.13;5043432;28;20207;-79
2021/01/02 10:59:22;;;;;;;52.53;23.07;;;;;;;0.48;100.00;100740.06;5047416;28;20216;-79
2021/01/02 11:01:49;;;;;;;51.27;23.60;;;;;;;0.49;100.00;100740.91;5045221;28;20224;-79
2021/01/02 11:04:17;;;;;;;49.60;22.60;;;;;;;0.48;100.00;100745.19;5047615;28;20200;-79
2021/01/02 11:06:45;;;;;;;47.07;21.97;;;;;;;0.48;100.00;100741.78;5043162;28;20196;-79
2021/01/02 11:09:13;;;;;;;48.63;22.17;;;;;;;0.48;100.00;100741.78;5041738;28;20568;-79
2021/01/02 11:11:39;;;;;;;51.63;25.37;;;;;;;0.48;100.00;100752.03;5036055;28;20219;-80
2021/01/02 11:14:05;;;;;;;54.83;24.37;;;;;;;0.47;100.00;100740.88;5037616;28;20716;-79